sensor_id;sensor_type;location;lat;lon;timestamp;temperature;humidity
12119;DHT22;6123;48.864;9.200;2022-09-03T00:01:49;17.30;99.90
12119;DHT22;6123;48.864;9.200;2022-09-03T00:07:14;17.20;99.90
12119;DHT22;6123;48.864;9.200;2022-09-03T00:09:46;17.20;99.90
12119;DHT22;6123;48.864;9.200;2022-09-03T00:12:27;17.20;99.90
12119;DHT22;6123;48.864;9.200;2022-09-03T00:15:06;17.20;99.90
12119;DHT22;6123;48.864;9.200;2022-09-03T00:17:45;17.20;99.90
12119;DHT22;6123;48.864;9.200;2022-09-03T00:20:14;17.20;99.90
12119;DHT22;6123;48.864;9.200;2022-09-03T00:22:48;17.10;99.90
12119;DHT22;6123;48.864;9.200;2022-09-03T00:28:15;17.10;99.90
12119;DHT22;6123;48.864;9.200;2022-09-03T00:30:45;17.20;99.90
12119;DHT22;6123;48.864;9.200;2022-09-03T00:33:21;17.20;99.90
12119;DHT22;6123;48.864;9.200;2022-09-03T00:36:05;17.10;99.90
12119;DHT22;6123;48.864;9.200;2022-09-03T00:38:36;17.20;99.90
12119;DHT22;6123;48.864;9.200;2022-09-03T00:43:57;17.20;99.90
12119;DHT22;6123;48.864;9.200;2022-09-03T00:46:56;17.20;99.90
12119;DHT22;6123;48.864;9.200;2022-09-03T00:49:57;17.20;99.90
12119;DHT22;6123;48.864;9.200;2022-09-03T00:55:15;17.20;99.90
12119;DHT22;6123;48.864;9.200;2022-09-03T01:00:47;17.20;99.90
12119;DHT22;6123;48.864;9.200;2022-09-03T01:06:17;17.30;99.90
12119;DHT22;6123;48.864;9.200;2022-09-03T01:22:46;17.20;99.90
12119;DHT22;6123;48.864;9.200;2022-09-03T01:30:48;17.30;99.90
12119;DHT22;6123;48.864;9.200;2022-09-03T01:33:23;17.30;99.90
12119;DHT22;6123;48.864;9.200;2022-09-03T01:36:05;17.40;99.90
12119;DHT22;6123;48.864;9.200;2022-09-03T01:38:35;17.30;99.90
12119;DHT22;6123;48.864;9.200;2022-09-03T01:46:36;17.30;99.90
12119;DHT22;6123;48.864;9.200;2022-09-03T01:49:37;17.50;99.90
12119;DHT22;6123;48.864;9.200;2022-09-03T01:54:41;17.30;99.90
12119;DHT22;6123;48.864;9.200;2022-09-03T01:59:58;17.40;99.90
12119;DHT22;6123;48.864;9.200;2022-09-03T02:02:27;17.30;99.90
12119;DHT22;6123;48.864;9.200;2022-09-03T02:04:58;17.30;99.90
12119;DHT22;6123;48.864;9.200;2022-09-03T02:07:25;17.20;99.90
12119;DHT22;6123;48.864;9.200;2022-09-03T02:09:53;17.20;99.90
12119;DHT22;6123;48.864;9.200;2022-09-03T02:12:21;17.30;99.90
12119;DHT22;6123;48.864;9.200;2022-09-03T02:14:47;17.20;99.90
12119;DHT22;6123;48.864;9.200;2022-09-03T02:17:15;17.10;99.90
12119;DHT22;6123;48.864;9.200;2022-09-03T02:19:40;17.20;99.90
12119;DHT22;6123;48.864;9.200;2022-09-03T02:22:06;17.20;99.90
12119;DHT22;6123;48.864;9.200;2022-09-03T02:24:32;17.30;99.90
12119;DHT22;6123;48.864;9.200;2022-09-03T02:26:58;17.30;99.90
12119;DHT22;6123;48.864;9.200;2022-09-03T02:29:23;17.20;99.90
12119;DHT22;6123;48.864;9.200;2022-09-03T02:31:50;17.30;99.90
12119;DHT22;6123;48.864;9.200;2022-09-03T02:34:15;17.30;99.90
12119;DHT22;6123;48.864;9.200;2022-09-03T02:36:46;17.30;99.90
12119;DHT22;6123;48.864;9.200;2022-09-03T02:39:15;17.30;99.90
12119;DHT22;6123;48.864;9.200;2022-09-03T02:41:41;17.30;99.90
12119;DHT22;6123;48.864;9.200;2022-09-03T02:44:20;17.30;99.90
12119;DHT22;6123;48.864;9.200;2022-09-03T02:46:56;17.30;99.90
12119;DHT22;6123;48.864;9.200;2022-09-03T02:49:22;17.30;99.90
12119;DHT22;6123;48.864;9.200;2022-09-03T02:51:47;17.40;99.90
12119;DHT22;6123;48.864;9.200;2022-09-03T02:54:13;17.50;99.90
12119;DHT22;6123;48.864;9.200;2022-09-03T02:56:39;17.40;99.90
12119;DHT22;6123;48.864;9.200;2022-09-03T02:59:07;17.30;99.90
12119;DHT22;6123;48.864;9.200;2022-09-03T03:01:34;17.20;99.90
12119;DHT22;6123;48.864;9.200;2022-09-03T03:04:01;17.20;99.90
12119;DHT22;6123;48.864;9.200;2022-09-03T03:06:26;17.20;99.90
12119;DHT22;6123;48.864;9.200;2022-09-03T03:08:52;17.10;99.90
12119;DHT22;6123;48.864;9.200;2022-09-03T03:11:21;17.00;99.90
12119;DHT22;6123;48.864;9.200;2022-09-03T03:13:52;17.00;99.90
12119;DHT22;6123;48.864;9.200;2022-09-03T03:16:18;17.10;99.90
12119;DHT22;6123;48.864;9.200;2022-09-03T03:18:44;17.20;99.90
12119;DHT22;6123;48.864;9.200;2022-09-03T03:21:15;17.10;99.90
12119;DHT22;6123;48.864;9.200;2022-09-03T03:23:41;17.10;99.90
12119;DHT22;6123;48.864;9.200;2022-09-03T03:26:12;17.10;99.90
12119;DHT22;6123;48.864;9.200;2022-09-03T03:28:38;17.10;99.90
12119;DHT22;6123;48.864;9.200;2022-09-03T03:31:16;17.10;99.90
12119;DHT22;6123;48.864;9.200;2022-09-03T03:33:42;17.10;99.90
12119;DHT22;6123;48.864;9.200;2022-09-03T03:36:14;17.10;99.90
12119;DHT22;6123;48.864;9.200;2022-09-03T03:38:42;17.00;99.90
12119;DHT22;6123;48.864;9.200;2022-09-03T03:43:40;17.00;99.90
12119;DHT22;6123;48.864;9.200;2022-09-03T03:46:06;17.00;99.90
12119;DHT22;6123;48.864;9.200;2022-09-03T03:48:32;17.00;99.90
12119;DHT22;6123;48.864;9.200;2022-09-03T03:51:02;17.10;99.90
12119;DHT22;6123;48.864;9.200;2022-09-03T03:53:33;17.10;99.90
12119;DHT22;6123;48.864;9.200;2022-09-03T03:56:03;17.10;99.90
12119;DHT22;6123;48.864;9.200;2022-09-03T03:58:30;17.10;99.90
12119;DHT22;6123;48.864;9.200;2022-09-03T04:01:10;17.10;99.90
12119;DHT22;6123;48.864;9.200;2022-09-03T04:03:36;17.10;99.90
12119;DHT22;6123;48.864;9.200;2022-09-03T04:06:05;17.00;99.90
12119;DHT22;6123;48.864;9.200;2022-09-03T04:08:34;17.10;99.90
12119;DHT22;6123;48.864;9.200;2022-09-03T04:11:02;17.10;99.90
12119;DHT22;6123;48.864;9.200;2022-09-03T04:13:29;17.10;99.90
12119;DHT22;6123;48.864;9.200;2022-09-03T04:16:23;17.00;99.90
12119;DHT22;6123;48.864;9.200;2022-09-03T04:18:49;17.00;99.90
12119;DHT22;6123;48.864;9.200;2022-09-03T04:21:23;17.00;99.90
12119;DHT22;6123;48.864;9.200;2022-09-03T04:23:50;17.00;99.90
12119;DHT22;6123;48.864;9.200;2022-09-03T04:26:27;16.90;99.90
12119;DHT22;6123;48.864;9.200;2022-09-03T04:28:57;16.90;99.90
12119;DHT22;6123;48.864;9.200;2022-09-03T04:31:23;16.80;99.90
12119;DHT22;6123;48.864;9.200;2022-09-03T04:33:52;16.80;99.90
12119;DHT22;6123;48.864;9.200;2022-09-03T04:36:21;16.80;99.90
12119;DHT22;6123;48.864;9.200;2022-09-03T04:38:49;16.80;99.90
12119;DHT22;6123;48.864;9.200;2022-09-03T04:41:23;16.70;99.90
12119;DHT22;6123;48.864;9.200;2022-09-03T04:43:54;16.80;99.90
12119;DHT22;6123;48.864;9.200;2022-09-03T04:46:26;16.70;99.90
12119;DHT22;6123;48.864;9.200;2022-09-03T04:48:53;16.70;99.90
12119;DHT22;6123;48.864;9.200;2022-09-03T04:51:25;16.80;99.90
12119;DHT22;6123;48.864;9.200;2022-09-03T04:53:57;16.90;99.90
12119;DHT22;6123;48.864;9.200;2022-09-03T04:56:28;16.80;99.90
12119;DHT22;6123;48.864;9.200;2022-09-03T04:58:56;16.90;99.90
12119;DHT22;6123;48.864;9.200;2022-09-03T05:01:23;16.80;99.90
12119;DHT22;6123;48.864;9.200;2022-09-03T05:03:49;16.80;99.90
12119;DHT22;6123;48.864;9.200;2022-09-03T05:06:19;16.90;99.90
12119;DHT22;6123;48.864;9.200;2022-09-03T05:08:47;16.90;99.90
12119;DHT22;6123;48.864;9.200;2022-09-03T05:11:16;16.90;99.90
12119;DHT22;6123;48.864;9.200;2022-09-03T05:13:46;17.10;99.90
12119;DHT22;6123;48.864;9.200;2022-09-03T05:16:13;17.00;99.90
12119;DHT22;6123;48.864;9.200;2022-09-03T05:18:39;16.90;99.90
12119;DHT22;6123;48.864;9.200;2022-09-03T05:21:11;17.00;99.90
12119;DHT22;6123;48.864;9.200;2022-09-03T05:23:42;16.90;99.90
12119;DHT22;6123;48.864;9.200;2022-09-03T05:26:23;16.80;99.90
12119;DHT22;6123;48.864;9.200;2022-09-03T05:28:55;16.80;99.90
12119;DHT22;6123;48.864;9.200;2022-09-03T05:31:26;16.80;99.90
12119;DHT22;6123;48.864;9.200;2022-09-03T05:33:56;16.90;99.90
12119;DHT22;6123;48.864;9.200;2022-09-03T05:36:27;16.80;99.90
12119;DHT22;6123;48.864;9.200;2022-09-03T05:38:53;16.80;99.90
12119;DHT22;6123;48.864;9.200;2022-09-03T05:41:22;16.80;99.90
12119;DHT22;6123;48.864;9.200;2022-09-03T05:43:50;16.80;99.90
12119;DHT22;6123;48.864;9.200;2022-09-03T05:46:25;17.00;99.90
12119;DHT22;6123;48.864;9.200;2022-09-03T05:48:59;17.10;99.90
12119;DHT22;6123;48.864;9.200;2022-09-03T05:51:29;17.10;99.90
12119;DHT22;6123;48.864;9.200;2022-09-03T05:53:55;17.10;99.90
12119;DHT22;6123;48.864;9.200;2022-09-03T05:56:24;17.10;99.90
12119;DHT22;6123;48.864;9.200;2022-09-03T05:58:52;17.10;99.90
12119;DHT22;6123;48.864;9.200;2022-09-03T06:01:20;17.20;99.90
12119;DHT22;6123;48.864;9.200;2022-09-03T06:03:56;17.10;99.90
12119;DHT22;6123;48.864;9.200;2022-09-03T06:06:23;17.10;99.90
12119;DHT22;6123;48.864;9.200;2022-09-03T06:09:03;17.10;99.90
12119;DHT22;6123;48.864;9.200;2022-09-03T06:11:33;17.10;99.90
12119;DHT22;6123;48.864;9.200;2022-09-03T06:14:01;17.10;99.90
12119;DHT22;6123;48.864;9.200;2022-09-03T06:16:28;17.20;99.90
12119;DHT22;6123;48.864;9.200;2022-09-03T06:18:54;17.40;99.90
12119;DHT22;6123;48.864;9.200;2022-09-03T06:21:20;17.40;99.90
12119;DHT22;6123;48.864;9.200;2022-09-03T06:23:50;17.40;99.90
12119;DHT22;6123;48.864;9.200;2022-09-03T06:26:19;17.40;99.90
12119;DHT22;6123;48.864;9.200;2022-09-03T06:28:45;17.40;99.90
12119;DHT22;6123;48.864;9.200;2022-09-03T06:31:18;17.50;99.90
12119;DHT22;6123;48.864;9.200;2022-09-03T06:33:44;17.50;99.90
12119;DHT22;6123;48.864;9.200;2022-09-03T06:36:17;17.60;99.90
12119;DHT22;6123;48.864;9.200;2022-09-03T06:38:43;17.70;99.90
12119;DHT22;6123;48.864;9.200;2022-09-03T06:41:14;17.80;99.90
12119;DHT22;6123;48.864;9.200;2022-09-03T06:43:50;17.90;99.90
12119;DHT22;6123;48.864;9.200;2022-09-03T06:46:19;17.90;99.90
12119;DHT22;6123;48.864;9.200;2022-09-03T06:48:49;17.90;99.90
12119;DHT22;6123;48.864;9.200;2022-09-03T06:51:21;18.10;99.90
12119;DHT22;6123;48.864;9.200;2022-09-03T06:53:49;18.00;99.90
12119;DHT22;6123;48.864;9.200;2022-09-03T06:56:17;18.00;99.90
12119;DHT22;6123;48.864;9.200;2022-09-03T06:58:45;18.00;99.90
12119;DHT22;6123;48.864;9.200;2022-09-03T07:01:17;18.00;99.90
12119;DHT22;6123;48.864;9.200;2022-09-03T07:03:47;18.00;99.90
12119;DHT22;6123;48.864;9.200;2022-09-03T07:06:18;18.10;99.90
12119;DHT22;6123;48.864;9.200;2022-09-03T07:08:45;18.20;99.90
12119;DHT22;6123;48.864;9.200;2022-09-03T07:11:12;18.40;99.90
12119;DHT22;6123;48.864;9.200;2022-09-03T07:13:41;18.50;99.90
12119;DHT22;6123;48.864;9.200;2022-09-03T07:16:18;18.60;99.90
12119;DHT22;6123;48.864;9.200;2022-09-03T07:18:45;18.60;99.90
12119;DHT22;6123;48.864;9.200;2022-09-03T07:21:22;18.70;99.90
12119;DHT22;6123;48.864;9.200;2022-09-03T07:23:50;18.80;99.90
12119;DHT22;6123;48.864;9.200;2022-09-03T07:26:23;18.90;99.90
12119;DHT22;6123;48.864;9.200;2022-09-03T07:28:49;18.90;99.90
12119;DHT22;6123;48.864;9.200;2022-09-03T07:31:20;19.00;99.90
12119;DHT22;6123;48.864;9.200;2022-09-03T07:33:54;19.20;99.90
12119;DHT22;6123;48.864;9.200;2022-09-03T07:36:23;19.10;99.90
12119;DHT22;6123;48.864;9.200;2022-09-03T07:38:50;19.00;99.90
12119;DHT22;6123;48.864;9.200;2022-09-03T07:41:16;19.10;99.90
12119;DHT22;6123;48.864;9.200;2022-09-03T07:43:44;19.20;99.90
12119;DHT22;6123;48.864;9.200;2022-09-03T07:46:21;19.20;99.90
12119;DHT22;6123;48.864;9.200;2022-09-03T07:48:56;19.30;99.90
12119;DHT22;6123;48.864;9.200;2022-09-03T07:51:26;19.50;99.90
12119;DHT22;6123;48.864;9.200;2022-09-03T07:54:00;19.50;99.90
12119;DHT22;6123;48.864;9.200;2022-09-03T07:56:27;19.60;99.90
12119;DHT22;6123;48.864;9.200;2022-09-03T07:58:56;19.80;99.90
12119;DHT22;6123;48.864;9.200;2022-09-03T08:01:23;19.80;99.90
12119;DHT22;6123;48.864;9.200;2022-09-03T08:03:50;19.80;99.90
12119;DHT22;6123;48.864;9.200;2022-09-03T08:06:17;19.90;99.90
12119;DHT22;6123;48.864;9.200;2022-09-03T08:08:43;20.00;99.90
12119;DHT22;6123;48.864;9.200;2022-09-03T08:11:17;20.10;99.90
12119;DHT22;6123;48.864;9.200;2022-09-03T08:13:44;20.40;99.90
12119;DHT22;6123;48.864;9.200;2022-09-03T08:16:15;20.60;99.90
12119;DHT22;6123;48.864;9.200;2022-09-03T08:18:42;20.50;99.90
12119;DHT22;6123;48.864;9.200;2022-09-03T08:21:14;20.40;99.90
12119;DHT22;6123;48.864;9.200;2022-09-03T08:23:45;20.60;99.90
12119;DHT22;6123;48.864;9.200;2022-09-03T08:26:12;20.60;99.90
12119;DHT22;6123;48.864;9.200;2022-09-03T08:28:41;20.70;99.90
12119;DHT22;6123;48.864;9.200;2022-09-03T08:33:43;20.90;99.90
12119;DHT22;6123;48.864;9.200;2022-09-03T08:36:14;21.20;99.90
12119;DHT22;6123;48.864;9.200;2022-09-03T08:38:42;21.40;99.90
12119;DHT22;6123;48.864;9.200;2022-09-03T08:41:16;21.40;99.90
12119;DHT22;6123;48.864;9.200;2022-09-03T08:52:00;20.40;99.90
12119;DHT22;6123;48.864;9.200;2022-09-03T08:54:29;20.90;99.90
12119;DHT22;6123;48.864;9.200;2022-09-03T08:57:01;21.10;99.90
12119;DHT22;6123;48.864;9.200;2022-09-03T08:59:29;20.80;99.90
12119;DHT22;6123;48.864;9.200;2022-09-03T09:12:47;20.80;99.90
12119;DHT22;6123;48.864;9.200;2022-09-03T09:15:29;20.30;99.90
12119;DHT22;6123;48.864;9.200;2022-09-03T09:20:56;20.90;99.90
12119;DHT22;6123;48.864;9.200;2022-09-03T09:23:30;21.10;99.90
12119;DHT22;6123;48.864;9.200;2022-09-03T09:26:01;21.10;99.90
12119;DHT22;6123;48.864;9.200;2022-09-03T09:28:35;20.40;99.90
12119;DHT22;6123;48.864;9.200;2022-09-03T09:31:03;20.20;99.90
12119;DHT22;6123;48.864;9.200;2022-09-03T09:33:30;20.70;99.90
12119;DHT22;6123;48.864;9.200;2022-09-03T09:36:00;21.50;99.90
12119;DHT22;6123;48.864;9.200;2022-09-03T09:38:32;22.10;99.90
12119;DHT22;6123;48.864;9.200;2022-09-03T09:41:19;21.70;99.90
12119;DHT22;6123;48.864;9.200;2022-09-03T09:43:47;22.10;99.90
12119;DHT22;6123;48.864;9.200;2022-09-03T09:46:20;22.20;99.90
12119;DHT22;6123;48.864;9.200;2022-09-03T09:48:55;22.00;99.90
12119;DHT22;6123;48.864;9.200;2022-09-03T09:51:30;21.80;99.90
12119;DHT22;6123;48.864;9.200;2022-09-03T09:56:26;21.90;99.90
12119;DHT22;6123;48.864;9.200;2022-09-03T09:59:05;22.20;99.90
12119;DHT22;6123;48.864;9.200;2022-09-03T10:01:32;22.20;99.90
12119;DHT22;6123;48.864;9.200;2022-09-03T10:04:30;22.30;99.90
12119;DHT22;6123;48.864;9.200;2022-09-03T10:09:44;22.30;99.90
12119;DHT22;6123;48.864;9.200;2022-09-03T10:12:39;22.50;99.90
12119;DHT22;6123;48.864;9.200;2022-09-03T10:15:46;22.50;99.90
12119;DHT22;6123;48.864;9.200;2022-09-03T10:26:24;22.50;99.90
12119;DHT22;6123;48.864;9.200;2022-09-03T10:29:01;22.90;99.90
12119;DHT22;6123;48.864;9.200;2022-09-03T10:31:42;23.00;99.90
12119;DHT22;6123;48.864;9.200;2022-09-03T10:42:43;23.10;99.90
12119;DHT22;6123;48.864;9.200;2022-09-03T10:50:58;23.80;99.90
12119;DHT22;6123;48.864;9.200;2022-09-03T10:53:50;24.30;99.90
12119;DHT22;6123;48.864;9.200;2022-09-03T11:02:16;24.20;99.90
12119;DHT22;6123;48.864;9.200;2022-09-03T11:07:31;24.20;99.90
12119;DHT22;6123;48.864;9.200;2022-09-03T11:13:02;24.10;99.90
12119;DHT22;6123;48.864;9.200;2022-09-03T11:15:34;24.40;99.90
12119;DHT22;6123;48.864;9.200;2022-09-03T11:21:13;24.10;99.90
12119;DHT22;6123;48.864;9.200;2022-09-03T11:23:43;24.10;99.90
12119;DHT22;6123;48.864;9.200;2022-09-03T11:26:13;24.20;99.90
12119;DHT22;6123;48.864;9.200;2022-09-03T11:34:15;24.50;99.90
12119;DHT22;6123;48.864;9.200;2022-09-03T11:36:51;24.60;99.90
12119;DHT22;6123;48.864;9.200;2022-09-03T11:39:31;24.60;99.90
12119;DHT22;6123;48.864;9.200;2022-09-03T11:42:02;24.60;99.90
12119;DHT22;6123;48.864;9.200;2022-09-03T11:44:41;24.70;99.90
12119;DHT22;6123;48.864;9.200;2022-09-03T11:49:45;23.70;99.90
12119;DHT22;6123;48.864;9.200;2022-09-03T11:52:25;23.30;99.90
12119;DHT22;6123;48.864;9.200;2022-09-03T11:54:51;23.30;99.90
12119;DHT22;6123;48.864;9.200;2022-09-03T11:57:29;23.40;99.90
12119;DHT22;6123;48.864;9.200;2022-09-03T12:00:08;23.20;99.90
12119;DHT22;6123;48.864;9.200;2022-09-03T12:02:43;23.00;99.90
12119;DHT22;6123;48.864;9.200;2022-09-03T12:05:21;23.10;99.90
12119;DHT22;6123;48.864;9.200;2022-09-03T12:19:34;23.00;99.90
12119;DHT22;6123;48.864;9.200;2022-09-03T12:22:01;22.80;99.90
12119;DHT22;6123;48.864;9.200;2022-09-03T12:24:28;22.80;99.90
12119;DHT22;6123;48.864;9.200;2022-09-03T12:27:04;22.80;99.90
12119;DHT22;6123;48.864;9.200;2022-09-03T12:29:31;22.70;99.90
12119;DHT22;6123;48.864;9.200;2022-09-03T12:32:06;22.60;99.90
12119;DHT22;6123;48.864;9.200;2022-09-03T12:34:34;22.50;99.90
12119;DHT22;6123;48.864;9.200;2022-09-03T12:37:01;22.40;99.90
12119;DHT22;6123;48.864;9.200;2022-09-03T12:39:28;22.30;99.90
12119;DHT22;6123;48.864;9.200;2022-09-03T12:44:27;22.30;99.90
12119;DHT22;6123;48.864;9.200;2022-09-03T12:47:02;22.30;99.90
12119;DHT22;6123;48.864;9.200;2022-09-03T12:49:37;22.30;99.90
12119;DHT22;6123;48.864;9.200;2022-09-03T12:57:45;21.90;99.90
12119;DHT22;6123;48.864;9.200;2022-09-03T13:00:15;21.30;99.90
12119;DHT22;6123;48.864;9.200;2022-09-03T13:05:36;20.50;99.90
12119;DHT22;6123;48.864;9.200;2022-09-03T13:08:06;20.20;99.90
12119;DHT22;6123;48.864;9.200;2022-09-03T13:10:37;19.90;99.90
12119;DHT22;6123;48.864;9.200;2022-09-03T13:13:28;19.80;99.90
12119;DHT22;6123;48.864;9.200;2022-09-03T13:33:49;19.10;99.90
12119;DHT22;6123;48.864;9.200;2022-09-03T13:36:27;19.30;99.90
12119;DHT22;6123;48.864;9.200;2022-09-03T13:38:59;19.40;99.90
12119;DHT22;6123;48.864;9.200;2022-09-03T13:49:52;20.50;99.90
12119;DHT22;6123;48.864;9.200;2022-09-03T13:55:21;20.30;99.90
12119;DHT22;6123;48.864;9.200;2022-09-03T13:57:58;20.20;99.90
12119;DHT22;6123;48.864;9.200;2022-09-03T14:00:46;20.10;99.90
12119;DHT22;6123;48.864;9.200;2022-09-03T14:08:52;19.90;99.90
12119;DHT22;6123;48.864;9.200;2022-09-03T14:11:31;19.90;99.90
12119;DHT22;6123;48.864;9.200;2022-09-03T14:17:18;20.00;99.90
12119;DHT22;6123;48.864;9.200;2022-09-03T14:19:50;20.30;99.90
12119;DHT22;6123;48.864;9.200;2022-09-03T14:22:24;20.40;99.90
12119;DHT22;6123;48.864;9.200;2022-09-03T14:24:58;20.30;99.90
12119;DHT22;6123;48.864;9.200;2022-09-03T14:27:28;20.20;99.90
12119;DHT22;6123;48.864;9.200;2022-09-03T14:30:23;20.10;99.90
12119;DHT22;6123;48.864;9.200;2022-09-03T14:33:38;20.10;99.90
12119;DHT22;6123;48.864;9.200;2022-09-03T14:36:04;20.10;99.90
12119;DHT22;6123;48.864;9.200;2022-09-03T14:41:53;19.60;99.90
12119;DHT22;6123;48.864;9.200;2022-09-03T14:44:31;19.60;99.90
12119;DHT22;6123;48.864;9.200;2022-09-03T14:50:13;19.30;99.90
12119;DHT22;6123;48.864;9.200;2022-09-03T14:52:58;19.20;99.90
12119;DHT22;6123;48.864;9.200;2022-09-03T14:58:23;19.20;99.90
12119;DHT22;6123;48.864;9.200;2022-09-03T15:01:01;19.20;99.90
12119;DHT22;6123;48.864;9.200;2022-09-03T15:09:21;19.50;99.90
12119;DHT22;6123;48.864;9.200;2022-09-03T15:12:15;19.70;99.90
12119;DHT22;6123;48.864;9.200;2022-09-03T15:14:53;19.80;99.90
12119;DHT22;6123;48.864;9.200;2022-09-03T15:25:44;20.60;99.90
12119;DHT22;6123;48.864;9.200;2022-09-03T15:28:26;20.90;99.90
12119;DHT22;6123;48.864;9.200;2022-09-03T15:36:21;22.70;99.90
12119;DHT22;6123;48.864;9.200;2022-09-03T15:43:59;23.30;99.90
12119;DHT22;6123;48.864;9.200;2022-09-03T15:46:36;23.00;99.90
12119;DHT22;6123;48.864;9.200;2022-09-03T15:55:22;24.00;99.90
12119;DHT22;6123;48.864;9.200;2022-09-03T15:58:22;23.90;99.90
12119;DHT22;6123;48.864;9.200;2022-09-03T16:06:58;23.70;99.90
12119;DHT22;6123;48.864;9.200;2022-09-03T16:16:10;22.80;99.90
12119;DHT22;6123;48.864;9.200;2022-09-03T16:18:42;22.60;99.90
12119;DHT22;6123;48.864;9.200;2022-09-03T16:21:35;22.80;99.90
12119;DHT22;6123;48.864;9.200;2022-09-03T16:24:23;22.70;99.90
12119;DHT22;6123;48.864;9.200;2022-09-03T16:29:38;22.20;99.90
12119;DHT22;6123;48.864;9.200;2022-09-03T16:32:19;22.10;99.90
12119;DHT22;6123;48.864;9.200;2022-09-03T16:54:19;22.70;99.90
12119;DHT22;6123;48.864;9.200;2022-09-03T17:12:41;23.00;99.90
12119;DHT22;6123;48.864;9.200;2022-09-03T17:35:08;21.50;99.90
12119;DHT22;6123;48.864;9.200;2022-09-03T17:42:29;21.40;99.90
12119;DHT22;6123;48.864;9.200;2022-09-03T17:45:25;21.40;99.90
12119;DHT22;6123;48.864;9.200;2022-09-03T17:48:32;21.30;99.90
12119;DHT22;6123;48.864;9.200;2022-09-03T17:51:09;21.00;99.90
12119;DHT22;6123;48.864;9.200;2022-09-03T17:53:43;20.90;99.90
12119;DHT22;6123;48.864;9.200;2022-09-03T17:59:01;20.70;99.90
12119;DHT22;6123;48.864;9.200;2022-09-03T18:01:34;20.80;99.90
12119;DHT22;6123;48.864;9.200;2022-09-03T18:06:58;20.50;99.90
12119;DHT22;6123;48.864;9.200;2022-09-03T18:09:34;20.40;99.90
12119;DHT22;6123;48.864;9.200;2022-09-03T18:12:25;20.50;99.90
12119;DHT22;6123;48.864;9.200;2022-09-03T18:14:58;20.40;99.90
12119;DHT22;6123;48.864;9.200;2022-09-03T18:20:11;20.40;99.90
12119;DHT22;6123;48.864;9.200;2022-09-03T18:26:26;20.10;99.90
12119;DHT22;6123;48.864;9.200;2022-09-03T18:29:33;20.00;99.90
12119;DHT22;6123;48.864;9.200;2022-09-03T18:32:19;19.90;99.90
12119;DHT22;6123;48.864;9.200;2022-09-03T18:35:03;19.90;99.90
12119;DHT22;6123;48.864;9.200;2022-09-03T18:37:47;19.90;99.90
12119;DHT22;6123;48.864;9.200;2022-09-03T18:40:52;19.80;99.90
12119;DHT22;6123;48.864;9.200;2022-09-03T18:43:59;19.70;99.90
12119;DHT22;6123;48.864;9.200;2022-09-03T19:02:22;19.50;99.90
12119;DHT22;6123;48.864;9.200;2022-09-03T19:05:26;19.50;99.90
12119;DHT22;6123;48.864;9.200;2022-09-03T19:08:26;19.50;99.90
12119;DHT22;6123;48.864;9.200;2022-09-03T19:14:34;19.30;99.90
12119;DHT22;6123;48.864;9.200;2022-09-03T19:20:28;19.20;99.90
12119;DHT22;6123;48.864;9.200;2022-09-03T19:23:13;19.20;99.90
12119;DHT22;6123;48.864;9.200;2022-09-03T19:26:14;19.20;99.90
12119;DHT22;6123;48.864;9.200;2022-09-03T19:29:10;19.10;99.90
12119;DHT22;6123;48.864;9.200;2022-09-03T19:32:05;19.00;99.90
12119;DHT22;6123;48.864;9.200;2022-09-03T19:35:14;19.10;99.90
12119;DHT22;6123;48.864;9.200;2022-09-03T19:53:09;18.80;99.90
12119;DHT22;6123;48.864;9.200;2022-09-03T19:55:58;18.70;99.90
12119;DHT22;6123;48.864;9.200;2022-09-03T19:59:00;18.70;99.90
12119;DHT22;6123;48.864;9.200;2022-09-03T20:01:46;18.70;99.90
12119;DHT22;6123;48.864;9.200;2022-09-03T20:04:38;18.60;99.90
12119;DHT22;6123;48.864;9.200;2022-09-03T20:07:25;18.70;99.90
12119;DHT22;6123;48.864;9.200;2022-09-03T20:10:12;18.60;99.90
12119;DHT22;6123;48.864;9.200;2022-09-03T20:15:46;18.50;99.90
12119;DHT22;6123;48.864;9.200;2022-09-03T20:18:28;18.40;99.90
12119;DHT22;6123;48.864;9.200;2022-09-03T20:21:09;18.50;99.90
12119;DHT22;6123;48.864;9.200;2022-09-03T20:26:57;18.50;99.90
12119;DHT22;6123;48.864;9.200;2022-09-03T20:38:06;18.60;99.90
12119;DHT22;6123;48.864;9.200;2022-09-03T20:45:42;18.30;99.90
12119;DHT22;6123;48.864;9.200;2022-09-03T20:48:22;18.30;99.90
12119;DHT22;6123;48.864;9.200;2022-09-03T20:51:02;18.20;99.90
12119;DHT22;6123;48.864;9.200;2022-09-03T20:53:57;18.20;99.90
12119;DHT22;6123;48.864;9.200;2022-09-03T20:56:35;18.10;99.90
12119;DHT22;6123;48.864;9.200;2022-09-03T21:02:43;18.00;99.90
12119;DHT22;6123;48.864;9.200;2022-09-03T21:05:30;18.00;99.90
12119;DHT22;6123;48.864;9.200;2022-09-03T21:10:53;18.00;99.90
12119;DHT22;6123;48.864;9.200;2022-09-03T21:18:39;17.70;99.90
12119;DHT22;6123;48.864;9.200;2022-09-03T21:21:38;17.80;99.90
12119;DHT22;6123;48.864;9.200;2022-09-03T21:24:19;17.90;99.90
12119;DHT22;6123;48.864;9.200;2022-09-03T21:26:55;17.80;99.90
12119;DHT22;6123;48.864;9.200;2022-09-03T21:29:28;17.80;99.90
12119;DHT22;6123;48.864;9.200;2022-09-03T21:32:16;17.80;99.90
12119;DHT22;6123;48.864;9.200;2022-09-03T21:34:53;17.90;99.90
12119;DHT22;6123;48.864;9.200;2022-09-03T21:37:21;17.80;99.90
12119;DHT22;6123;48.864;9.200;2022-09-03T21:39:54;17.80;99.90
12119;DHT22;6123;48.864;9.200;2022-09-03T21:42:23;17.70;99.90
12119;DHT22;6123;48.864;9.200;2022-09-03T21:45:24;17.80;99.90
12119;DHT22;6123;48.864;9.200;2022-09-03T21:48:00;17.80;99.90
12119;DHT22;6123;48.864;9.200;2022-09-03T21:50:46;17.70;99.90
12119;DHT22;6123;48.864;9.200;2022-09-03T21:53:34;17.70;99.90
12119;DHT22;6123;48.864;9.200;2022-09-03T22:04:29;17.70;99.90
12119;DHT22;6123;48.864;9.200;2022-09-03T22:07:14;17.90;99.90
12119;DHT22;6123;48.864;9.200;2022-09-03T22:13:09;18.10;99.90
12119;DHT22;6123;48.864;9.200;2022-09-03T22:15:42;18.10;99.90
12119;DHT22;6123;48.864;9.200;2022-09-03T22:18:28;18.20;99.90
12119;DHT22;6123;48.864;9.200;2022-09-03T22:26:33;18.00;99.90
12119;DHT22;6123;48.864;9.200;2022-09-03T22:42:59;18.00;99.90
12119;DHT22;6123;48.864;9.200;2022-09-03T22:48:19;18.10;99.90
12119;DHT22;6123;48.864;9.200;2022-09-03T22:50:55;18.10;99.90
12119;DHT22;6123;48.864;9.200;2022-09-03T22:56:16;18.10;99.90
12119;DHT22;6123;48.864;9.200;2022-09-03T23:01:57;18.00;99.90
12119;DHT22;6123;48.864;9.200;2022-09-03T23:07:41;17.90;99.90
12119;DHT22;6123;48.864;9.200;2022-09-03T23:10:21;17.80;99.90
12119;DHT22;6123;48.864;9.200;2022-09-03T23:13:15;17.80;99.90
12119;DHT22;6123;48.864;9.200;2022-09-03T23:15:46;17.70;99.90
12119;DHT22;6123;48.864;9.200;2022-09-03T23:18:23;17.70;99.90
12119;DHT22;6123;48.864;9.200;2022-09-03T23:21:04;17.70;99.90
12119;DHT22;6123;48.864;9.200;2022-09-03T23:23:38;17.70;99.90
12119;DHT22;6123;48.864;9.200;2022-09-03T23:28:41;17.60;99.90
12119;DHT22;6123;48.864;9.200;2022-09-03T23:31:17;17.60;99.90
12119;DHT22;6123;48.864;9.200;2022-09-03T23:33:43;17.50;99.90
12119;DHT22;6123;48.864;9.200;2022-09-03T23:36:27;17.50;99.90
12119;DHT22;6123;48.864;9.200;2022-09-03T23:41:55;17.40;99.90